createdAt,value
2022-09-24T00:01:07.522Z,14.95
2022-09-24T00:03:33.828Z,17.00
2022-09-24T00:06:02.106Z,15.77
2022-09-24T00:08:28.501Z,15.15
2022-09-24T00:10:56.576Z,16.65
2022-09-24T00:13:23.020Z,17.88
2022-09-24T00:15:50.648Z,15.45
2022-09-24T00:18:18.162Z,15.15
2022-09-24T00:20:44.617Z,16.40
2022-09-24T00:23:11.471Z,19.05
2022-09-24T00:26:00.188Z,17.17
2022-09-24T00:28:26.970Z,17.98
2022-09-24T00:30:53.504Z,16.83
2022-09-24T00:33:20.073Z,17.52
2022-09-24T00:35:46.573Z,18.10
2022-09-24T00:38:12.991Z,16.55
2022-09-24T00:40:39.479Z,19.30
2022-09-24T00:43:22.028Z,20.10
2022-09-24T00:45:48.747Z,18.90
2022-09-24T00:48:15.461Z,21.35
2022-09-24T00:50:41.829Z,19.00
2022-09-24T00:53:10.300Z,20.08
2022-09-24T00:55:37.313Z,22.02
2022-09-24T00:58:05.908Z,18.92
2022-09-24T01:00:32.757Z,17.33
2022-09-24T01:03:04.961Z,22.98
2022-09-24T01:05:31.717Z,18.92
2022-09-24T01:07:58.153Z,20.38
2022-09-24T01:10:48.280Z,19.52
2022-09-24T01:13:24.124Z,18.25
2022-09-24T01:15:55.181Z,20.63
2022-09-24T01:18:28.167Z,20.88
2022-09-24T01:21:10.337Z,19.30
2022-09-24T01:23:48.403Z,20.63
2022-09-24T01:26:23.630Z,22.08
2022-09-24T01:29:05.860Z,20.67
2022-09-24T01:31:36.085Z,25.08
2022-09-24T01:34:05.869Z,20.95
2022-09-24T01:36:34.985Z,22.27
2022-09-24T01:39:02.056Z,19.98
2022-09-24T01:41:28.586Z,21.00
2022-09-24T01:43:55.067Z,23.00
2022-09-24T01:46:22.705Z,19.50
2022-09-24T01:48:50.739Z,22.35
2022-09-24T01:51:23.317Z,19.00
2022-09-24T01:54:05.646Z,21.05
2022-09-24T01:56:32.136Z,19.50
2022-09-24T01:59:01.465Z,19.52
2022-09-24T02:01:33.435Z,17.98
2022-09-24T02:04:03.574Z,18.10
2022-09-24T02:06:35.050Z,18.50
2022-09-24T02:09:01.516Z,17.73
2022-09-24T02:11:28.338Z,17.58
2022-09-24T02:14:07.776Z,18.90
2022-09-24T02:16:36.159Z,17.23
2022-09-24T02:19:05.475Z,18.15
2022-09-24T02:21:32.602Z,17.75
2022-09-24T02:24:12.269Z,17.85
2022-09-24T02:26:38.638Z,17.88
2022-09-24T02:29:05.354Z,22.75
2022-09-24T02:31:34.205Z,20.60
2022-09-24T02:34:21.583Z,18.17
2022-09-24T02:37:05.189Z,18.30
2022-09-24T02:39:31.642Z,21.45
2022-09-24T02:41:58.320Z,16.60
2022-09-24T02:44:24.656Z,19.15
2022-09-24T02:46:51.135Z,16.60
2022-09-24T02:49:17.585Z,17.92
2022-09-24T02:51:44.172Z,16.13
2022-09-24T02:54:11.024Z,17.52
2022-09-24T02:56:37.947Z,16.13
2022-09-24T02:59:05.311Z,16.80
2022-09-24T03:01:32.373Z,16.48
2022-09-24T03:03:58.823Z,16.83
2022-09-24T03:06:25.401Z,16.25
2022-09-24T03:08:53.685Z,15.48
2022-09-24T03:11:21.657Z,16.30
2022-09-24T03:13:48.128Z,15.85
2022-09-24T03:16:14.714Z,16.70
2022-09-24T03:18:41.194Z,16.95
2022-09-24T03:21:08.702Z,18.75
2022-09-24T03:23:35.120Z,15.30
2022-09-24T03:26:01.819Z,17.10
2022-09-24T03:28:28.154Z,19.50
2022-09-24T03:31:00.769Z,16.77
2022-09-24T03:33:33.383Z,18.15
2022-09-24T03:36:00.894Z,20.50
2022-09-24T03:38:28.060Z,17.65
2022-09-24T03:40:54.664Z,16.40
2022-09-24T03:43:21.333Z,16.98
2022-09-24T03:45:49.043Z,18.35
2022-09-24T03:48:16.270Z,17.38
2022-09-24T03:50:42.831Z,16.73
2022-09-24T03:53:09.501Z,19.70
2022-09-24T03:55:36.425Z,20.73
2022-09-24T03:58:02.856Z,17.60
2022-09-24T04:00:29.314Z,20.58
2022-09-24T04:02:55.876Z,22.23
2022-09-24T04:05:22.283Z,21.10
2022-09-24T04:07:48.663Z,20.55
2022-09-24T04:10:15.133Z,20.95
2022-09-24T04:12:43.505Z,23.77
2022-09-24T04:15:09.973Z,23.38
2022-09-24T04:17:36.333Z,23.88
2022-09-24T04:20:02.725Z,22.83
2022-09-24T04:22:29.143Z,24.67
2022-09-24T04:24:58.413Z,27.02
2022-09-24T04:27:24.841Z,24.90
2022-09-24T04:29:51.193Z,23.95
2022-09-24T04:32:17.493Z,23.63
2022-09-24T04:34:43.812Z,23.35
2022-09-24T04:37:10.163Z,28.48
2022-09-24T04:39:36.589Z,26.10
2022-09-24T04:42:02.934Z,31.40
2022-09-24T04:44:30.263Z,30.35
2022-09-24T04:47:00.966Z,25.92
2022-09-24T04:49:27.891Z,24.88
2022-09-24T04:51:54.325Z,31.20
2022-09-24T04:54:20.715Z,30.23
2022-09-24T04:56:47.045Z,29.35
2022-09-24T04:59:13.370Z,25.88
2022-09-24T05:01:39.778Z,28.55
2022-09-24T05:04:06.229Z,26.73
2022-09-24T05:06:33.063Z,28.55
2022-09-24T05:08:59.417Z,25.40
2022-09-24T05:11:25.733Z,26.10
2022-09-24T05:13:53.245Z,25.88
2022-09-24T05:16:19.667Z,26.63
2022-09-24T05:18:46.080Z,24.75
2022-09-24T05:21:12.707Z,24.20
2022-09-24T05:23:39.161Z,23.13
2022-09-24T05:26:24.318Z,22.75
2022-09-24T05:28:52.140Z,21.75
2022-09-24T05:31:18.574Z,25.02
2022-09-24T05:33:46.098Z,22.17
2022-09-24T05:36:12.499Z,22.20
2022-09-24T05:38:41.740Z,24.60
2022-09-24T05:41:08.365Z,22.23
2022-09-24T05:43:34.771Z,22.23
2022-09-24T05:46:01.155Z,22.20
2022-09-24T05:48:28.201Z,20.73
2022-09-24T05:50:55.359Z,20.88
2022-09-24T05:53:25.113Z,22.58
2022-09-24T05:55:51.420Z,20.85
2022-09-24T05:58:18.239Z,21.80
2022-09-24T06:00:45.529Z,21.33
2022-09-24T06:03:14.147Z,19.20
2022-09-24T06:05:48.590Z,18.63
2022-09-24T06:08:18.988Z,20.35
2022-09-24T06:10:46.480Z,19.00
2022-09-24T06:13:14.128Z,18.48
2022-09-24T06:15:42.143Z,17.98
2022-09-24T06:18:08.927Z,16.88
2022-09-24T06:20:35.352Z,18.98
2022-09-24T06:23:02.361Z,17.30
2022-09-24T06:25:29.250Z,17.25
2022-09-24T06:28:00.919Z,19.73
2022-09-24T06:30:28.224Z,17.33
2022-09-24T06:32:55.253Z,18.70
2022-09-24T06:35:21.833Z,17.75
2022-09-24T06:37:49.207Z,19.10
2022-09-24T06:40:16.331Z,17.58
2022-09-24T06:42:42.795Z,17.13
2022-09-24T06:45:09.771Z,16.10
2022-09-24T06:47:36.283Z,19.73
2022-09-24T06:50:02.670Z,16.55
2022-09-24T06:52:29.748Z,14.35
2022-09-24T06:54:56.479Z,14.88
2022-09-24T06:57:28.041Z,13.15
2022-09-24T06:59:55.249Z,11.70
2022-09-24T07:02:21.764Z,14.70
2022-09-24T07:04:48.586Z,11.90
2022-09-24T07:07:30.043Z,13.18
2022-09-24T07:09:56.673Z,13.52
2022-09-24T07:12:23.234Z,13.68
2022-09-24T07:14:49.798Z,14.07
2022-09-24T07:17:16.322Z,15.07
2022-09-24T07:19:42.747Z,15.35
2022-09-24T07:22:09.131Z,12.80
2022-09-24T07:24:35.561Z,16.58
2022-09-24T07:27:03.978Z,13.88
2022-09-24T07:29:30.379Z,21.02
2022-09-24T07:31:56.908Z,15.32
2022-09-24T07:34:23.343Z,15.23
2022-09-24T07:36:49.803Z,15.45
2022-09-24T07:39:16.391Z,16.67
2022-09-24T07:41:42.830Z,16.10
2022-09-24T07:44:09.762Z,20.42
2022-09-24T07:46:36.335Z,15.60
2022-09-24T07:49:02.938Z,15.15
2022-09-24T07:51:29.883Z,17.58
2022-09-24T07:53:56.551Z,17.88
2022-09-24T07:56:23.467Z,17.40
2022-09-24T07:58:50.134Z,17.70
2022-09-24T08:01:17.701Z,19.42
2022-09-24T08:03:45.012Z,17.75
2022-09-24T08:06:11.377Z,18.27
2022-09-24T08:08:39.006Z,18.98
2022-09-24T08:11:06.123Z,20.08
2022-09-24T08:13:34.378Z,19.17
2022-09-24T08:16:01.695Z,17.58
2022-09-24T08:18:29.635Z,21.08
2022-09-24T08:20:57.830Z,21.20
2022-09-24T08:23:24.209Z,20.02
2022-09-24T08:25:50.725Z,18.67
2022-09-24T08:28:19.619Z,18.52
2022-09-24T08:30:46.133Z,19.80
2022-09-24T08:33:12.517Z,20.98
2022-09-24T08:35:42.033Z,21.90
2022-09-24T08:38:09.172Z,19.20
2022-09-24T08:40:38.860Z,21.73
2022-09-24T08:43:28.663Z,21.02
2022-09-24T08:46:18.220Z,20.45
2022-09-24T08:48:47.487Z,18.83
2022-09-24T08:51:17.807Z,19.05
2022-09-24T08:53:48.598Z,20.50
2022-09-24T08:56:18.945Z,20.75
2022-09-24T08:58:48.745Z,19.90
2022-09-24T09:01:18.893Z,19.50
2022-09-24T09:03:57.653Z,20.95
2022-09-24T09:06:24.011Z,17.95
2022-09-24T09:09:16.599Z,20.38
2022-09-24T09:11:45.625Z,23.67
2022-09-24T09:14:18.561Z,20.05
2022-09-24T09:16:48.546Z,20.52
2022-09-24T09:19:16.815Z,19.00
2022-09-24T09:21:45.174Z,19.20
2022-09-24T09:24:18.458Z,22.35
2022-09-24T09:26:47.514Z,20.08
2022-09-24T09:29:14.146Z,21.50
2022-09-24T09:31:46.774Z,18.73
2022-09-24T09:34:23.715Z,17.25
2022-09-24T09:37:07.757Z,18.15
2022-09-24T09:39:37.951Z,18.60
2022-09-24T09:42:09.635Z,21.45
2022-09-24T09:44:41.398Z,18.57
2022-09-24T09:47:22.801Z,18.27
2022-09-24T09:49:51.416Z,18.67
2022-09-24T09:52:20.815Z,20.30
2022-09-24T09:54:47.585Z,19.15
2022-09-24T09:57:18.442Z,18.65
2022-09-24T09:59:52.186Z,19.27
2022-09-24T10:02:23.714Z,19.65
2022-09-24T10:04:52.859Z,17.15
2022-09-24T10:07:19.340Z,21.20
2022-09-24T10:09:46.648Z,17.63
2022-09-24T10:12:24.181Z,17.77
2022-09-24T10:15:24.610Z,16.35
2022-09-24T10:17:52.710Z,20.20
2022-09-24T10:20:24.213Z,16.60
2022-09-24T10:22:52.021Z,19.45
2022-09-24T10:25:26.729Z,17.38
2022-09-24T10:27:55.024Z,17.73
2022-09-24T10:30:36.394Z,17.38
2022-09-24T10:33:03.538Z,16.83
2022-09-24T10:35:35.778Z,16.55
2022-09-24T10:38:04.687Z,17.10
2022-09-24T10:40:38.185Z,15.80
2022-09-24T10:43:06.406Z,18.70
2022-09-24T10:45:46.918Z,18.25
2022-09-24T10:48:17.942Z,16.17
2022-09-24T10:50:54.263Z,16.80
2022-09-24T10:53:28.875Z,17.92
2022-09-24T10:56:01.701Z,18.27
2022-09-24T10:58:33.951Z,20.60
2022-09-24T11:01:06.933Z,20.02
2022-09-24T11:03:33.372Z,17.52
2022-09-24T11:06:02.418Z,17.90
2022-09-24T11:08:34.442Z,18.77
2022-09-24T11:11:15.290Z,17.08
2022-09-24T11:14:02.297Z,17.38
2022-09-24T11:16:40.259Z,16.70
2022-09-24T11:19:19.140Z,17.50
2022-09-24T11:21:45.540Z,20.95
2022-09-24T11:24:15.268Z,22.23
2022-09-24T11:26:54.213Z,20.30
2022-09-24T11:29:23.607Z,18.48
2022-09-24T11:31:56.554Z,18.33
2022-09-24T11:34:29.304Z,18.80
2022-09-24T11:37:16.076Z,17.55
2022-09-24T11:39:45.473Z,18.92
2022-09-24T11:42:30.274Z,21.60
2022-09-24T11:44:56.758Z,19.50
2022-09-24T11:47:35.421Z,20.75
2022-09-24T11:50:13.831Z,18.20
2022-09-24T11:52:47.817Z,18.60
2022-09-24T11:55:19.723Z,17.38
2022-09-24T11:57:51.890Z,18.83
2022-09-24T12:00:20.184Z,17.38
2022-09-24T12:02:56.489Z,20.20
2022-09-24T12:05:32.895Z,19.40
2022-09-24T12:08:10.263Z,18.70
2022-09-24T12:10:43.458Z,18.08
2022-09-24T12:13:17.347Z,18.80
2022-09-24T12:15:46.168Z,18.90
2022-09-24T12:18:27.366Z,18.67
2022-09-24T12:20:56.833Z,18.25
2022-09-24T12:23:27.886Z,21.20
2022-09-24T12:25:56.044Z,20.33
2022-09-24T12:28:41.080Z,18.70
2022-09-24T12:31:38.638Z,19.45
2022-09-24T12:34:08.367Z,20.70
2022-09-24T12:36:42.478Z,19.83
2022-09-24T12:39:11.158Z,18.45
2022-09-24T12:41:49.270Z,19.95
2022-09-24T12:44:21.979Z,17.67
2022-09-24T12:46:48.760Z,18.85
2022-09-24T12:49:18.329Z,19.00
2022-09-24T12:51:44.863Z,20.88
2022-09-24T12:54:32.602Z,17.75
2022-09-24T12:57:12.448Z,18.38
2022-09-24T12:59:52.758Z,18.70
2022-09-24T13:02:19.279Z,18.65
2022-09-24T13:05:00.832Z,17.25
2022-09-24T13:07:38.025Z,19.83
2022-09-24T13:10:16.454Z,17.75
2022-09-24T13:12:43.252Z,18.48
2022-09-24T13:15:35.959Z,18.20
2022-09-24T13:18:07.658Z,17.50
2022-09-24T13:20:34.724Z,18.17
2022-09-24T13:23:19.742Z,18.65
2022-09-24T13:25:56.318Z,18.17
2022-09-24T13:28:25.269Z,19.13
2022-09-24T13:30:55.322Z,18.48
2022-09-24T13:33:27.911Z,18.33
2022-09-24T13:38:31.818Z,19.52
2022-09-24T13:41:04.138Z,19.13
2022-09-24T13:43:30.470Z,19.55
2022-09-24T13:45:58.229Z,19.88
2022-09-24T13:48:24.762Z,19.40
2022-09-24T13:50:52.202Z,21.10
2022-09-24T13:53:29.677Z,18.67
2022-09-24T13:55:58.714Z,22.55
2022-09-24T13:58:35.356Z,21.13
2022-09-24T14:01:12.543Z,19.55
2022-09-24T14:03:39.596Z,18.42
2022-09-24T14:06:10.753Z,20.85
2022-09-24T14:08:40.054Z,20.00
2022-09-24T14:11:18.030Z,20.55
2022-09-24T14:13:47.551Z,19.50
2022-09-24T14:16:18.960Z,23.67
2022-09-24T14:18:45.622Z,26.55
2022-09-24T14:21:19.366Z,20.15
2022-09-24T14:24:06.019Z,22.85
2022-09-24T14:26:41.015Z,21.35
2022-09-24T14:29:48.397Z,21.38
2022-09-24T14:32:36.880Z,23.55
2022-09-24T14:35:19.577Z,22.52
2022-09-24T14:37:47.925Z,23.08
2022-09-24T14:40:16.000Z,27.55
2022-09-24T14:42:44.839Z,22.17
2022-09-24T14:45:18.746Z,25.73
2022-09-24T14:47:45.186Z,18.48
2022-09-24T14:50:30.014Z,19.27
2022-09-24T14:52:57.368Z,19.42
2022-09-24T14:55:35.801Z,23.80
2022-09-24T14:58:02.229Z,17.88
2022-09-24T15:00:47.916Z,16.15
2022-09-24T15:03:15.443Z,15.40
2022-09-24T15:05:42.917Z,14.10
2022-09-24T15:08:27.985Z,13.75
2022-09-24T15:10:55.679Z,14.73
2022-09-24T15:13:23.495Z,13.50
2022-09-24T15:16:00.576Z,15.27
2022-09-24T15:18:27.034Z,10.73
2022-09-24T15:20:53.445Z,11.55
2022-09-24T15:23:19.902Z,14.63
2022-09-24T15:25:46.337Z,12.60
2022-09-24T15:28:14.123Z,10.90
2022-09-24T15:30:41.980Z,11.70
2022-09-24T15:33:11.075Z,10.50
2022-09-24T15:35:37.514Z,10.93
2022-09-24T15:38:04.010Z,12.88
2022-09-24T15:40:33.720Z,13.93
2022-09-24T15:43:00.171Z,11.32
2022-09-24T15:45:26.647Z,12.30
2022-09-24T15:47:53.507Z,10.40
2022-09-24T15:50:23.736Z,11.95
2022-09-24T15:52:54.244Z,11.77
2022-09-24T15:55:21.647Z,11.95
2022-09-24T15:57:48.148Z,10.63
2022-09-24T16:00:15.898Z,10.25
2022-09-24T16:02:43.568Z,13.50
2022-09-24T16:05:11.854Z,9.57
2022-09-24T16:07:38.213Z,9.15
2022-09-24T16:10:04.914Z,9.43
2022-09-24T16:12:31.319Z,9.48
2022-09-24T16:14:59.198Z,10.63
2022-09-24T16:17:26.321Z,10.88
2022-09-24T16:19:52.761Z,10.82
2022-09-24T16:22:20.598Z,10.98
2022-09-24T16:24:47.243Z,12.10
2022-09-24T16:27:14.086Z,10.60
2022-09-24T16:29:40.529Z,9.82
2022-09-24T16:32:06.943Z,10.80
2022-09-24T16:34:34.560Z,9.88
2022-09-24T16:37:01.073Z,12.27
2022-09-24T16:39:27.468Z,10.20
2022-09-24T16:41:54.444Z,11.38
2022-09-24T16:44:20.881Z,11.40
2022-09-24T16:46:47.321Z,9.60
2022-09-24T16:49:13.842Z,10.02
2022-09-24T16:51:40.270Z,10.25
2022-09-24T16:54:06.714Z,8.68
2022-09-24T16:56:33.403Z,8.70
2022-09-24T16:58:59.845Z,8.75
2022-09-24T17:01:26.320Z,10.80
2022-09-24T17:03:53.723Z,11.98
2022-09-24T17:06:20.878Z,10.98
2022-09-24T17:09:06.017Z,10.63
2022-09-24T17:11:32.551Z,12.73
2022-09-24T17:13:59.805Z,13.15
2022-09-24T17:16:27.182Z,11.95
2022-09-24T17:18:57.790Z,14.45
2022-09-24T17:21:25.238Z,12.65
2022-09-24T17:23:51.910Z,16.23
2022-09-24T17:26:19.394Z,14.15
2022-09-24T17:28:46.504Z,14.95
2022-09-24T17:31:14.420Z,15.18
2022-09-24T17:33:44.575Z,20.25
2022-09-24T17:36:12.451Z,19.27
2022-09-24T17:38:38.967Z,21.00
2022-09-24T17:41:14.587Z,17.65
2022-09-24T17:43:41.465Z,16.58
2022-09-24T17:46:13.832Z,15.60
2022-09-24T17:48:42.001Z,12.38
2022-09-24T17:51:11.006Z,18.92
2022-09-24T17:53:37.609Z,27.15
2022-09-24T17:56:05.385Z,22.42
2022-09-24T17:58:32.662Z,21.30
2022-09-24T18:01:04.181Z,21.85
2022-09-24T18:03:30.560Z,16.40
2022-09-24T18:06:04.890Z,14.98
2022-09-24T18:08:31.293Z,14.60
2022-09-24T18:11:04.734Z,16.13
2022-09-24T18:13:34.191Z,15.18
2022-09-24T18:16:08.238Z,13.50
2022-09-24T18:18:35.153Z,13.77
2022-09-24T18:21:05.948Z,10.35
2022-09-24T18:23:34.722Z,12.85
2022-09-24T18:26:11.833Z,12.20
2022-09-24T18:28:41.369Z,12.50
2022-09-24T18:31:08.870Z,11.55
2022-09-24T18:33:36.784Z,14.57
2022-09-24T18:36:07.590Z,10.93
2022-09-24T18:38:34.330Z,8.50
2022-09-24T18:41:01.718Z,6.30
2022-09-24T18:43:28.334Z,7.78
2022-09-24T18:45:54.739Z,9.57
2022-09-24T18:48:21.188Z,8.57
2022-09-24T18:50:47.982Z,6.85
2022-09-24T18:53:14.532Z,8.15
2022-09-24T18:55:42.165Z,8.80
2022-09-24T18:58:10.946Z,8.13
2022-09-24T19:00:49.756Z,9.02
2022-09-24T19:03:19.418Z,6.03
2022-09-24T19:05:47.638Z,8.43
2022-09-24T19:08:14.487Z,6.53
2022-09-24T19:10:41.231Z,7.40
2022-09-24T19:13:07.781Z,6.90
2022-09-24T19:15:38.589Z,12.60
2022-09-24T19:18:06.749Z,6.18
2022-09-24T19:20:37.145Z,7.03
2022-09-24T19:23:03.806Z,7.50
2022-09-24T19:25:34.025Z,5.88
2022-09-24T19:28:00.853Z,5.55
2022-09-24T19:30:27.613Z,5.00
2022-09-24T19:32:53.927Z,6.00
2022-09-24T19:35:20.327Z,8.88
2022-09-24T19:37:46.911Z,6.65
2022-09-24T19:40:13.829Z,6.03
2022-09-24T19:42:40.208Z,4.25
2022-09-24T19:45:06.747Z,13.55
2022-09-24T19:47:33.486Z,6.97
2022-09-24T19:50:00.063Z,8.38
2022-09-24T19:52:26.459Z,7.93
2022-09-24T19:54:52.843Z,6.78
2022-09-24T19:57:19.289Z,7.53
2022-09-24T19:59:45.773Z,5.97
2022-09-24T20:02:12.258Z,6.72
2022-09-24T20:04:39.406Z,8.35
2022-09-24T20:07:06.160Z,5.53
2022-09-24T20:09:32.658Z,4.90
2022-09-24T20:11:59.592Z,5.05
2022-09-24T20:14:29.120Z,6.78
2022-09-24T20:16:57.873Z,6.88
2022-09-24T20:19:24.182Z,6.60
2022-09-24T20:21:52.445Z,6.78
2022-09-24T20:24:18.810Z,9.88
2022-09-24T20:27:03.594Z,9.43
2022-09-24T20:29:29.986Z,6.20
2022-09-24T20:31:56.824Z,10.45
2022-09-24T20:34:24.821Z,5.47
2022-09-24T20:36:51.382Z,6.80
2022-09-24T20:39:17.870Z,9.43
2022-09-24T20:41:45.294Z,15.07
2022-09-24T20:44:11.755Z,9.35
2022-09-24T20:46:39.150Z,10.15
2022-09-24T20:49:06.036Z,11.65
2022-09-24T20:51:35.456Z,12.95
2022-09-24T20:54:01.845Z,17.83
2022-09-24T20:56:30.440Z,13.68
2022-09-24T20:58:57.314Z,10.55
2022-09-24T21:01:24.729Z,9.10
2022-09-24T21:03:51.678Z,11.65
2022-09-24T21:06:20.655Z,10.18
2022-09-24T21:08:47.098Z,9.73
2022-09-24T21:11:21.152Z,10.00
2022-09-24T21:13:51.787Z,15.80
2022-09-24T21:16:22.252Z,16.80
2022-09-24T21:18:49.410Z,13.23
2022-09-24T21:21:17.157Z,15.13
2022-09-24T21:23:44.161Z,14.80
2022-09-24T21:26:30.105Z,14.27
2022-09-24T21:29:00.877Z,16.45
2022-09-24T21:31:31.183Z,23.70
2022-09-24T21:33:57.737Z,28.58
2022-09-24T21:36:25.408Z,33.92
2022-09-24T21:38:55.931Z,29.45
2022-09-24T21:41:23.337Z,29.48
2022-09-24T21:43:49.917Z,29.27
2022-09-24T21:46:16.457Z,24.58
2022-09-24T21:48:42.900Z,26.42
2022-09-24T21:51:11.082Z,23.23
2022-09-24T21:53:40.429Z,24.73
2022-09-24T21:56:07.188Z,23.90
2022-09-24T21:58:33.608Z,30.10
2022-09-24T22:01:05.272Z,21.83
2022-09-24T22:03:32.071Z,24.98
2022-09-24T22:06:03.117Z,23.85
2022-09-24T22:08:31.572Z,20.88
2022-09-24T22:11:02.178Z,20.58
2022-09-24T22:13:30.038Z,18.08
2022-09-24T22:15:57.600Z,26.63
2022-09-24T22:18:23.988Z,22.00
2022-09-24T22:20:50.418Z,25.05
2022-09-24T22:23:17.181Z,18.38
2022-09-24T22:25:46.645Z,17.73
2022-09-24T22:28:15.381Z,17.67
2022-09-24T22:30:45.421Z,17.05
2022-09-24T22:33:34.729Z,16.88
2022-09-24T22:36:01.231Z,14.07
2022-09-24T22:38:27.666Z,12.10
2022-09-24T22:40:54.142Z,10.20
2022-09-24T22:43:20.541Z,9.65
2022-09-24T22:45:46.891Z,6.53
2022-09-24T22:48:13.316Z,6.25
2022-09-24T22:50:39.723Z,7.38
2022-09-24T22:53:06.057Z,7.05
2022-09-24T22:55:32.382Z,8.18
2022-09-24T22:57:58.854Z,6.15
2022-09-24T23:00:25.279Z,7.70
2022-09-24T23:02:51.681Z,13.05
2022-09-24T23:05:18.131Z,13.75
2022-09-24T23:07:44.540Z,12.85
2022-09-24T23:10:10.944Z,10.35
2022-09-24T23:12:37.349Z,10.65
2022-09-24T23:15:03.910Z,10.30
2022-09-24T23:17:30.277Z,9.50
2022-09-24T23:19:56.604Z,11.45
2022-09-24T23:22:23.169Z,11.20
2022-09-24T23:24:53.433Z,14.65
2022-09-24T23:27:20.821Z,12.20
2022-09-24T23:29:47.162Z,12.98
2022-09-24T23:32:14.257Z,13.00
2022-09-24T23:34:41.091Z,11.85
2022-09-24T23:37:08.209Z,5.75
2022-09-24T23:39:34.526Z,8.52
2022-09-24T23:42:00.845Z,9.48
2022-09-24T23:44:27.218Z,10.25
2022-09-24T23:46:53.618Z,11.80
2022-09-24T23:49:19.958Z,6.55
2022-09-24T23:51:46.289Z,9.45
2022-09-24T23:54:12.682Z,11.73
2022-09-24T23:56:39.121Z,8.15
2022-09-24T23:59:05.581Z,5.85
